Festivo — EAEQ — position and weather

sailwx.info

Track history (hours):
 
Tides and Currents Weather Stations Pressure Air Temp Water Temp Dewpoint Dewpoint Depression Visibility Wind Speed Wind Dir Waves Ship Positions

Festivo

Last reported at 2014-Sep-02 08:33 UTC. Time now 2014-Sep-02 21:15 UTC.
Position N 35°55' W 005°19'.

Length 136 m; draft 3.5 m.

Type: Cargo ship. MMSI: 225410000.

Date/timePositionNaut miles runAvg speedWind from/ knotsBaromVisibWave heightAir tempDewpointWater temp
2014-Sep-02 08:33N 35°55' W 005°19'1 1.2
2014-Sep-02 07:33N 35°54' W 005°19'0 0.0
2014-Sep-02 06:33N 35°54' W 005°19'3 2.8
2014-Sep-02 05:33N 35°55' W 005°17'1 0.7
2014-Sep-02 04:33N 35°55' W 005°17'  
2014-Aug-30 16:34N 35°54' W 005°19'0 0.2
2014-Aug-30 15:31N 35°54' W 005°19'0 0.0
2014-Aug-30 14:31N 35°54' W 005°19'0 0.0
2014-Aug-30 13:31N 35°54' W 005°19'0 0.0
2014-Aug-30 12:31N 35°54' W 005°19'0 0.0
2014-Aug-30 11:31N 35°54' W 005°19'0 0.0
2014-Aug-30 10:31N 35°54' W 005°19'0 0.0
2014-Aug-30 09:31N 35°54' W 005°19'0 0.0
2014-Aug-30 08:31N 35°54' W 005°19'0 0.0
2014-Aug-30 07:31N 35°54' W 005°19'0 0.0
2014-Aug-30 06:31N 35°54' W 005°19'4 0.1
2014-Aug-28 09:16N 35°56' W 005°16'4 5.1
2014-Aug-28 08:32N 35°54' W 005°19'0 0.0
2014-Aug-28 07:32N 35°54' W 005°19'0 0.0
2014-Aug-28 06:32N 35°54' W 005°19'1 1.0
2014-Aug-28 05:34N 35°54' W 005°18'3 0.1
2014-Aug-26 10:07N 35°57' W 005°16'4 7.1
2014-Aug-26 09:33N 35°54' W 005°19'0 0.1
2014-Aug-26 08:32N 35°54' W 005°19'0 0.0
2014-Aug-26 07:32N 35°54' W 005°19'0 0.0
2014-Aug-26 06:32N 35°54' W 005°19'0 0.1
2014-Aug-26 05:34N 35°54' W 005°19'  
Track history (hours):
 
Tides and Currents Weather Stations Pressure Air Temp Water Temp Dewpoint Dewpoint Depression Visibility Wind Speed Wind Dir Waves Ship Positions

Festivo

Last reported at 2014-Sep-02 08:33 UTC. Time now 2014-Sep-02 21:15 UTC.
Position N 35°55' W 005°19'.

Length 136 m; draft 3.5 m.

Type: Cargo ship. MMSI: 225410000.

Date/timePositionNaut miles runAvg speedWind from/ knotsBaromVisibWave heightAir tempDewpointWater temp
2014-Sep-02 08:33N 35°55' W 005°19'1 1.2
2014-Sep-02 07:33N 35°54' W 005°19'0 0.0
2014-Sep-02 06:33N 35°54' W 005°19'3 2.8
2014-Sep-02 05:33N 35°55' W 005°17'1 0.7
2014-Sep-02 04:33N 35°55' W 005°17'  
2014-Aug-30 16:34N 35°54' W 005°19'0 0.2
2014-Aug-30 15:31N 35°54' W 005°19'0 0.0
2014-Aug-30 14:31N 35°54' W 005°19'0 0.0
2014-Aug-30 13:31N 35°54' W 005°19'0 0.0
2014-Aug-30 12:31N 35°54' W 005°19'0 0.0
2014-Aug-30 11:31N 35°54' W 005°19'0 0.0
2014-Aug-30 10:31N 35°54' W 005°19'0 0.0
2014-Aug-30 09:31N 35°54' W 005°19'0 0.0
2014-Aug-30 08:31N 35°54' W 005°19'0 0.0
2014-Aug-30 07:31N 35°54' W 005°19'0 0.0
2014-Aug-30 06:31N 35°54' W 005°19'4 0.1
2014-Aug-28 09:16N 35°56' W 005°16'4 5.1
2014-Aug-28 08:32N 35°54' W 005°19'0 0.0
2014-Aug-28 07:32N 35°54' W 005°19'0 0.0
2014-Aug-28 06:32N 35°54' W 005°19'1 1.0
2014-Aug-28 05:34N 35°54' W 005°18'3 0.1
2014-Aug-26 10:07N 35°57' W 005°16'4 7.1
2014-Aug-26 09:33N 35°54' W 005°19'0 0.1
2014-Aug-26 08:32N 35°54' W 005°19'0 0.0
2014-Aug-26 07:32N 35°54' W 005°19'0 0.0
2014-Aug-26 06:32N 35°54' W 005°19'0 0.1
2014-Aug-26 05:34N 35°54' W 005°19'  

Dump ship's entire track history